Time;durP1;ratioP1;P1;durP2;ratioP2;P2;SDS_P1;SDS_P2;PMS_P1;PMS_P2;Temp;Humidity;BMP_temperature;BMP_pressure;BME280_temperature;BME280_humidity;BME280_pressure;Samples;Min_cycle;Max_cycle;Signal;HPM_P1;HPM_P2
2022/04/22 04:00:29;;;;;;;17.83;13.38;;;;;;;11.09;52.66;99727.53;5583638;31;33469;-59
2022/04/22 04:03:31;;;;;;;16.77;12.70;;;;;;;11.18;50.31;99731.91;5582856;31;33944;-59
2022/04/22 04:06:35;;;;;;;17.27;12.75;;;;;;;11.14;50.92;99732.81;5583419;31;34258;-59
2022/04/22 04:16:20;;;;;;;15.02;12.52;;;;;;;11.46;49.48;99727.28;5596748;31;34246;-58
2022/04/22 04:26:04;;;;;;;18.35;13.55;;;;;;;11.56;49.15;99720.91;5601599;31;33678;-59
2022/04/22 04:29:09;;;;;;;16.98;12.48;;;;;;;11.47;49.79;99718.13;5599781;31;33331;-58
2022/04/22 04:32:11;;;;;;;16.60;13.20;;;;;;;11.48;49.28;99735.03;5576547;31;33704;-58
2022/04/22 04:35:13;;;;;;;17.50;13.38;;;;;;;11.43;49.39;99740.53;5570579;32;33614;-59
2022/04/22 04:38:15;;;;;;;16.90;13.25;;;;;;;11.41;48.61;99740.81;5583078;32;33631;-59
2022/04/22 04:41:18;;;;;;;19.55;12.90;;;;;;;11.43;48.88;99738.62;5582123;32;34345;-59
2022/04/22 04:44:20;;;;;;;17.62;12.90;;;;;;;11.44;48.74;99737.53;5569145;31;34265;-58
2022/04/22 04:47:22;;;;;;;18.40;12.63;;;;;;;11.50;48.09;99735.53;5578495;32;34743;-60
2022/04/22 04:50:24;;;;;;;18.02;12.80;;;;;;;11.39;50.33;99740.34;5574430;32;34218;-59
2022/04/22 04:53:27;;;;;;;16.12;12.70;;;;;;;11.33;50.41;99740.75;5567743;32;33671;-59
2022/04/22 04:56:29;;;;;;;16.55;12.60;;;;;;;11.52;50.67;99731.47;5565649;32;33720;-59
2022/04/22 04:59:31;;;;;;;14.05;11.77;;;;;;;11.81;49.09;99729.47;5575291;31;34502;-59
2022/04/22 05:02:33;;;;;;;17.87;12.90;;;;;;;11.74;48.46;99733.38;5578807;31;33592;-59
2022/04/22 05:05:36;;;;;;;20.20;13.40;;;;;;;11.68;49.08;99729.22;5575993;31;33832;-59
2022/04/22 05:08:38;;;;;;;15.70;13.00;;;;;;;11.67;48.74;99727.63;5559956;32;33837;-59
2022/04/22 05:11:40;;;;;;;15.32;12.52;;;;;;;11.82;49.02;99741.78;5549974;32;33654;-59
2022/04/22 05:14:42;;;;;;;16.42;13.02;;;;;;;11.85;52.82;99746.59;5559614;32;33638;-59
2022/04/22 05:17:46;;;;;;;18.73;13.57;;;;;;;11.99;48.20;99753.53;5578095;31;33771;-59
2022/04/22 05:20:48;;;;;;;17.83;14.00;;;;;;;11.90;48.37;99741.91;5558302;31;33689;-59
2022/04/22 05:23:50;;;;;;;17.60;13.15;;;;;;;11.95;48.29;99757.91;5550049;32;34270;-59
2022/04/22 05:26:52;;;;;;;18.20;14.57;;;;;;;11.96;47.90;99761.41;5550143;32;33195;-59
2022/04/22 05:33:16;;;;;;;18.05;13.38;;;;;;;11.96;53.24;99769.44;5550049;32;34020;-59
2022/04/22 05:36:19;;;;;;;20.20;14.80;;;;;;;12.03;47.29;99750.22;5549524;32;33577;-59
2022/04/22 05:39:21;;;;;;;17.60;13.90;;;;;;;11.89;48.19;99750.28;5557476;32;33635;-59
2022/04/22 05:42:23;;;;;;;18.87;14.55;;;;;;;11.96;48.76;99754.12;5551058;32;34187;-58
2022/04/22 05:45:27;;;;;;;18.50;14.38;;;;;;;12.04;47.66;99746.44;5564943;31;33707;-59
2022/04/22 05:48:29;;;;;;;17.77;13.68;;;;;;;12.02;47.98;99741.37;5556452;32;34308;-59
2022/04/22 05:51:34;;;;;;;23.20;15.85;;;;;;;11.97;50.18;99752.22;5557506;32;33633;-59
2022/04/22 05:54:39;;;;;;;18.60;14.27;;;;;;;12.04;47.73;99747.22;5549618;32;33554;-59
2022/04/22 05:57:42;;;;;;;17.20;14.07;;;;;;;12.08;51.05;99742.81;5557405;32;33242;-59
2022/04/22 06:00:44;;;;;;;20.35;14.52;;;;;;;11.92;48.44;99737.03;5555614;31;33539;-58
2022/04/22 06:03:47;;;;;;;25.17;15.27;;;;;;;11.87;47.83;99736.34;5550105;32;33646;-59
2022/04/22 06:06:49;;;;;;;21.62;13.85;;;;;;;11.94;48.25;99742.09;5563763;31;33744;-57
2022/04/22 06:13:12;;;;;;;23.35;14.65;;;;;;;11.95;48.89;99740.97;5549240;32;33302;-59
2022/04/22 06:16:14;;;;;;;20.50;14.27;;;;;;;12.17;50.24;99734.84;5548977;32;33614;-58
2022/04/22 06:19:18;;;;;;;17.90;13.13;;;;;;;12.17;48.46;99729.47;5548730;32;34374;-59
2022/04/22 06:22:22;;;;;;;21.75;15.32;;;;;;;12.22;48.50;99730.12;5549016;32;34289;-59
2022/04/22 06:25:25;;;;;;;20.35;15.32;;;;;;;12.10;47.33;99735.25;5549490;32;33554;-58
2022/04/22 06:28:27;;;;;;;23.42;14.95;;;;;;;11.94;48.84;99728.66;5559189;32;33289;-57
2022/04/22 06:31:30;;;;;;;19.85;15.20;;;;;;;12.09;48.57;99735.59;5566197;32;33915;-58
2022/04/22 06:34:32;;;;;;;22.52;13.52;;;;;;;12.10;47.31;99729.09;5567683;32;33654;-59
2022/04/22 06:37:40;;;;;;;22.70;14.82;;;;;;;12.26;54.09;99726.84;5554614;32;33225;-58
2022/04/22 06:48:10;;;;;;;19.30;14.15;;;;;;;12.32;48.60;99702.22;5548905;32;33746;-59
2022/04/22 06:51:32;;;;;;;20.65;14.38;;;;;;;12.25;48.20;99696.50;5558499;32;33428;-59
2022/04/22 06:54:36;;;;;;;20.12;14.40;;;;;;;12.19;49.75;99706.56;5556129;32;33197;-59
2022/04/22 06:57:40;;;;;;;21.23;15.45;;;;;;;12.33;50.18;99703.78;5566365;32;34274;-59
2022/04/22 07:00:44;;;;;;;19.95;15.63;;;;;;;12.21;48.36;99706.25;5563710;32;32229;-59
2022/04/22 07:03:47;;;;;;;20.98;13.77;;;;;;;12.11;47.91;99701.13;5556575;32;34279;-58
2022/04/22 07:06:50;;;;;;;17.87;15.02;;;;;;;12.16;54.24;99701.78;5547630;32;33700;-58
2022/04/22 07:09:53;;;;;;;21.50;15.02;;;;;;;12.33;49.43;99697.63;5548529;32;33589;-59
2022/04/22 07:12:57;;;;;;;20.27;15.05;;;;;;;12.46;51.51;99713.66;5553980;32;33577;-59
2022/04/22 07:16:01;;;;;;;22.33;15.02;;;;;;;12.49;48.43;99708.78;5562429;32;34488;-59
2022/04/22 07:19:03;;;;;;;18.00;14.45;;;;;;;12.33;47.16;99708.38;5549773;32;34246;-59
2022/04/22 07:22:06;;;;;;;24.58;15.73;;;;;;;12.46;48.75;99719.03;5554447;32;33598;-59
2022/04/22 07:25:09;;;;;;;21.77;14.32;;;;;;;12.39;47.96;99718.69;5549053;32;34405;-58
2022/04/22 07:28:12;;;;;;;23.40;15.18;;;;;;;12.52;48.94;99717.03;5553488;32;33664;-59
2022/04/22 07:31:18;;;;;;;22.65;14.60;;;;;;;12.53;47.99;99721.28;5564584;32;33307;-58
2022/04/22 07:34:21;;;;;;;;;;;;;;;12.46;53.68;99719.03;5565670;32;34166;-59
2022/04/22 07:37:24;;;;;;;23.42;15.95;;;;;;;12.44;53.89;99707.00;5566543;32;33887;-60
2022/04/22 07:40:26;;;;;;;22.92;15.07;;;;;;;12.53;51.54;99712.44;5558023;32;34025;-59
2022/04/22 07:47:02;;;;;;;26.35;15.40;;;;;;;12.40;53.85;99706.81;5567961;32;33738;-59
2022/04/22 07:50:06;;;;;;;32.33;15.95;;;;;;;12.53;53.85;99707.84;5562057;32;34447;-59
2022/04/22 07:53:08;;;;;;;26.37;16.42;;;;;;;12.53;54.92;99702.47;5554341;32;33338;-60
2022/04/22 07:56:10;;;;;;;20.55;16.42;;;;;;;12.46;54.87;99707.50;5554299;31;34256;-59
2022/04/22 07:59:12;;;;;;;22.62;16.35;;;;;;;12.46;54.88;99705.59;5561169;31;34196;-58
2022/04/22 08:02:16;;;;;;;22.90;16.67;;;;;;;12.45;56.74;99709.41;5559509;32;34322;-59
2022/04/22 08:05:19;;;;;;;24.73;15.95;;;;;;;12.40;58.18;99700.66;5547466;32;33833;-60
2022/04/22 08:08:21;;;;;;;22.80;16.77;;;;;;;12.43;58.03;99697.34;5556469;32;33662;-59
2022/04/22 08:11:23;;;;;;;23.25;16.17;;;;;;;12.48;57.70;99689.16;5553542;32;33551;-59
2022/04/22 08:14:27;;;;;;;23.92;17.12;;;;;;;12.39;58.37;99694.50;5553315;32;34285;-58
2022/04/22 08:17:38;;;;;;;23.17;18.77;;;;;;;12.22;61.36;99694.41;5545475;32;33837;-59
2022/04/22 08:20:40;;;;;;;24.27;17.60;;;;;;;12.11;63.06;99696.53;5546300;32;34235;-58
2022/04/22 08:23:42;;;;;;;24.50;15.95;;;;;;;12.03;61.35;99697.28;5560950;31;34311;-59
2022/04/22 08:26:46;;;;;;;25.35;16.17;;;;;;;12.11;62.96;99695.75;5551692;32;34243;-59
2022/04/22 08:29:55;;;;;;;21.20;15.85;;;;;;;11.95;63.00;99689.94;5559650;31;33386;-58
2022/04/22 08:33:01;;;;;;;17.55;14.98;;;;;;;12.00;66.86;99687.16;5546560;32;34399;-59
2022/04/22 08:36:03;;;;;;;21.83;16.27;;;;;;;12.08;63.80;99688.31;5547785;32;33623;-59
2022/04/22 08:39:05;;;;;;;23.17;17.48;;;;;;;12.13;67.67;99680.91;5546713;32;34229;-58
2022/04/22 08:42:11;;;;;;;22.00;16.58;;;;;;;12.16;67.59;99680.31;5547798;32;33749;-59
2022/04/22 08:45:33;;;;;;;18.58;15.40;;;;;;;12.13;68.75;99683.59;5552843;32;33722;-59
2022/04/22 08:51:59;;;;;;;25.60;18.62;;;;;;;12.04;70.17;99672.00;5554907;32;33633;-58
2022/04/22 08:55:07;;;;;;;20.52;16.45;;;;;;;11.91;72.65;99670.19;5557979;32;33746;-59
2022/04/22 08:58:10;;;;;;;21.83;18.30;;;;;;;12.03;71.89;99670.44;5555989;32;33299;-58
2022/04/22 09:01:13;;;;;;;20.88;17.58;;;;;;;12.13;72.76;99683.59;5557125;32;34317;-58
2022/04/22 09:04:15;;;;;;;22.48;17.70;;;;;;;12.14;70.99;99674.44;5567648;32;33622;-59
2022/04/22 09:07:21;;;;;;;24.33;18.67;;;;;;;12.21;70.69;99669.41;5550019;32;33832;-59
2022/04/22 09:10:23;;;;;;;20.00;17.48;;;;;;;11.95;72.34;99661.22;5559154;32;33649;-58
2022/04/22 09:13:27;;;;;;;18.98;16.95;;;;;;;12.08;74.46;99648.00;5555950;32;33724;-59
2022/04/22 09:16:30;;;;;;;20.12;18.00;;;;;;;12.30;71.43;99634.53;5551488;32;34334;-59
2022/04/22 09:19:37;;;;;;;20.30;18.02;;;;;;;12.17;71.19;99644.25;5552401;31;33618;-59
2022/04/22 09:22:41;;;;;;;23.60;19.85;;;;;;;12.05;72.40;99638.66;5567875;32;33638;-58
2022/04/22 09:25:44;;;;;;;22.48;18.77;;;;;;;12.09;72.40;99633.50;5568787;32;33359;-59
2022/04/22 09:29:00;;;;;;;21.73;17.83;;;;;;;12.03;73.50;99621.28;5569189;32;34390;-58
2022/04/22 09:32:02;;;;;;;23.85;18.85;;;;;;;11.90;73.37;99610.31;5548758;32;34481;-58
2022/04/22 09:35:10;;;;;;;20.60;18.40;;;;;;;11.68;72.61;99611.06;5549557;32;34357;-59
2022/04/22 09:45:05;;;;;;;20.85;17.12;;;;;;;11.95;75.98;99594.06;5548529;32;33719;-58
2022/04/22 09:48:15;;;;;;;22.30;19.37;;;;;;;12.14;73.87;99601.88;5548995;32;33751;-59
2022/04/22 09:51:30;;;;;;;22.33;18.80;;;;;;;11.96;74.48;99602.91;5557629;31;33599;-58
2022/04/22 09:54:32;;;;;;;23.33;19.08;;;;;;;12.06;73.74;99601.88;5552172;32;33361;-59
2022/04/22 09:57:56;;;;;;;23.75;18.52;;;;;;;12.16;73.30;99598.91;5557651;32;33756;-58
2022/04/22 10:01:02;;;;;;;21.83;17.65;;;;;;;12.17;73.67;99609.34;5559593;32;33607;-59
2022/04/22 10:04:04;;;;;;;22.35;17.33;;;;;;;12.23;72.88;99610.00;5558509;32;33250;-59
2022/04/22 10:07:08;;;;;;;20.90;18.65;;;;;;;12.21;73.50;99618.34;5568982;32;34681;-59
2022/04/22 10:10:14;;;;;;;21.05;17.50;;;;;;;12.12;72.45;99620.22;5564248;32;33935;-59
2022/04/22 10:13:18;;;;;;;19.73;16.77;;;;;;;12.17;70.95;99617.41;5560163;32;33392;-58
2022/04/22 10:16:27;;;;;;;20.02;17.85;;;;;;;11.98;72.92;99603.38;5551451;32;33675;-58
2022/04/22 10:19:32;;;;;;;21.80;18.42;;;;;;;12.07;73.70;99593.47;5562444;32;33295;-58
2022/04/22 10:22:36;;;;;;;21.40;18.30;;;;;;;11.96;73.29;99589.50;5558955;31;33624;-59
2022/04/22 10:25:39;;;;;;;22.20;17.52;;;;;;;11.93;72.92;99572.09;5562670;32;33768;-59
2022/04/22 10:28:44;;;;;;;22.92;18.52;;;;;;;12.15;73.58;99571.25;5551323;32;33695;-58
2022/04/22 10:31:47;;;;;;;20.80;18.02;;;;;;;12.11;75.49;99572.94;5550129;32;33587;-59
2022/04/22 10:35:00;;;;;;;20.92;18.73;;;;;;;12.13;73.55;99576.13;5567888;31;33647;-58
2022/04/22 10:38:04;;;;;;;22.40;19.92;;;;;;;12.11;74.26;99574.84;5550757;32;33417;-58
2022/04/22 10:41:17;;;;;;;21.85;17.60;;;;;;;11.97;75.39;99569.56;5555696;32;33441;-59
2022/04/22 10:47:41;;;;;;;18.15;16.08;;;;;;;12.07;73.28;99572.00;5548778;32;33689;-59
2022/04/22 10:50:55;;;;;;;18.60;16.20;;;;;;;12.18;74.82;99557.16;5547893;32;34433;-59
2022/04/22 10:53:57;;;;;;;18.52;16.30;;;;;;;12.17;72.82;99550.22;5554691;32;33414;-59
2022/04/22 10:57:19;;;;;;;18.12;16.23;;;;;;;12.12;72.28;99549.56;5563103;32;34484;-58
2022/04/22 11:00:27;;;;;;;19.23;16.85;;;;;;;12.14;71.29;99537.41;5550478;32;34317;-58
2022/04/22 11:03:34;;;;;;;18.48;16.52;;;;;;;12.21;71.65;99540.44;5567561;32;33837;-59
2022/04/22 11:06:36;;;;;;;20.85;16.62;;;;;;;12.31;72.89;99539.34;5560754;32;34463;-59
2022/04/22 11:09:43;;;;;;;19.00;16.95;;;;;;;12.28;71.60;99542.66;5555420;32;33702;-58
2022/04/22 11:12:51;;;;;;;18.15;15.75;;;;;;;12.40;72.06;99537.50;5560409;32;33452;-59
2022/04/22 11:15:57;;;;;;;20.88;17.17;;;;;;;12.41;69.48;99536.37;5565447;31;34472;-59
2022/04/22 11:19:13;;;;;;;19.27;17.33;;;;;;;12.36;70.81;99535.75;5555355;32;34322;-57
2022/04/22 11:22:16;;;;;;;20.08;17.77;;;;;;;12.45;69.18;99531.97;5554949;32;33733;-59
2022/04/22 11:25:23;;;;;;;21.02;17.05;;;;;;;12.54;68.36;99528.50;5552211;31;34033;-58
2022/04/22 11:28:26;;;;;;;18.52;16.33;;;;;;;12.48;68.93;99530.53;5550135;32;34346;-59
2022/04/22 11:31:29;;;;;;;22.25;17.45;;;;;;;12.63;69.02;99522.03;5549383;32;33751;-59
2022/04/22 11:34:53;;;;;;;19.25;16.67;;;;;;;12.77;66.40;99511.13;5549961;32;33635;-58
2022/04/22 11:38:01;;;;;;;17.75;15.75;;;;;;;12.72;67.17;99513.19;5561402;32;33637;-59
2022/04/22 11:41:11;;;;;;;17.58;15.75;;;;;;;12.99;64.65;99520.97;5565356;32;33648;-58
2022/04/22 11:44:19;;;;;;;18.98;16.33;;;;;;;13.09;64.57;99511.78;5557261;32;33729;-59
2022/04/22 11:47:22;;;;;;;17.30;14.73;;;;;;;13.19;64.03;99511.44;5553311;32;33758;-58
2022/04/22 11:50:26;;;;;;;17.55;14.45;;;;;;;13.24;63.31;99502.41;5561107;32;34313;-58
2022/04/22 11:53:34;;;;;;;18.55;14.35;;;;;;;13.32;63.55;99512.41;5548606;32;33826;-58
2022/04/22 11:56:37;;;;;;;20.58;15.40;;;;;;;13.39;64.49;99504.63;5563214;31;33451;-58
2022/04/22 11:59:39;;;;;;;17.23;13.38;;;;;;;13.51;62.69;99491.31;5557999;31;34335;-59
2022/04/22 12:06:13;;;;;;;16.62;12.40;;;;;;;13.74;59.38;99488.38;5565804;32;33693;-59
2022/04/22 12:09:15;;;;;;;12.77;10.90;;;;;;;13.73;56.91;99474.13;5559795;32;33341;-59
2022/04/22 12:12:17;;;;;;;16.12;12.13;;;;;;;13.72;56.93;99464.47;5567822;32;34428;-59
2022/04/22 12:15:20;;;;;;;13.25;11.43;;;;;;;13.75;57.94;99466.50;5567986;32;33263;-59
2022/04/22 12:18:29;;;;;;;15.77;12.48;;;;;;;13.76;54.93;99457.31;5569613;32;33775;-59
2022/04/22 12:21:36;;;;;;;15.85;13.25;;;;;;;13.65;53.59;99448.03;5570205;32;33929;-59
2022/04/22 12:24:38;;;;;;;15.25;12.40;;;;;;;13.76;55.68;99445.75;5570118;32;34292;-59
2022/04/22 12:27:42;;;;;;;13.85;11.57;;;;;;;13.82;52.96;99439.84;5568363;31;33731;-58
2022/04/22 12:30:44;;;;;;;13.95;11.65;;;;;;;13.85;52.62;99428.44;5570221;32;33714;-59
2022/04/22 12:33:59;;;;;;;13.07;11.68;;;;;;;13.89;53.48;99425.09;5570055;32;33481;-58
2022/04/22 12:37:07;;;;;;;14.13;11.65;;;;;;;13.87;52.53;99433.47;5570130;32;34259;-58
2022/04/22 12:40:11;;;;;;;15.98;10.52;;;;;;;13.90;50.85;99432.06;5569826;32;33672;-58
2022/04/22 12:43:31;;;;;;;13.20;11.80;;;;;;;13.97;49.95;99422.37;5569913;32;33256;-59
2022/04/22 12:53:34;;;;;;;13.32;10.40;;;;;;;14.03;49.79;99421.03;5570039;32;33692;-59
2022/04/22 12:56:39;;;;;;;13.73;11.32;;;;;;;14.09;50.51;99414.34;5558533;31;33617;-59
2022/04/22 12:59:49;;;;;;;12.98;10.82;;;;;;;14.06;53.12;99415.00;5550471;32;33348;-59
2022/04/22 13:02:52;;;;;;;18.77;11.20;;;;;;;14.03;49.90;99412.94;5550301;32;33699;-59
2022/04/22 13:05:54;;;;;;;12.70;10.25;;;;;;;14.10;48.87;99415.94;5557140;32;34286;-58
2022/04/22 13:08:57;;;;;;;12.57;9.68;;;;;;;14.09;49.10;99408.97;5550608;32;33752;-59
2022/04/22 13:11:59;;;;;;;13.00;9.65;;;;;;;14.07;48.71;99399.59;5552007;32;34274;-59
2022/04/22 13:15:02;;;;;;;11.43;10.23;;;;;;;14.24;49.52;99412.22;5554169;31;34453;-60
2022/04/22 13:18:04;;;;;;;13.27;10.02;;;;;;;14.21;48.64;99402.88;5589193;31;34404;-59
2022/04/22 13:21:06;;;;;;;12.05;9.70;;;;;;;14.23;48.83;99405.22;5589226;31;33653;-59
2022/04/22 13:24:09;;;;;;;11.52;9.68;;;;;;;14.30;48.91;99400.09;5568643;31;33759;-59
2022/04/22 13:27:12;;;;;;;11.25;9.70;;;;;;;14.23;47.09;99389.03;5552784;32;34000;-59
2022/04/22 13:30:15;;;;;;;11.73;8.88;;;;;;;14.21;47.04;99394.78;5569716;32;33663;-59
2022/04/22 13:33:18;;;;;;;12.68;9.25;;;;;;;14.25;47.83;99392.22;5569685;32;33946;-59
2022/04/22 13:36:26;;;;;;;12.02;9.75;;;;;;;14.29;46.96;99391.22;5569601;32;33758;-58
2022/04/22 13:39:28;;;;;;;13.00;9.82;;;;;;;14.30;48.81;99400.09;5557290;32;33725;-59
2022/04/22 13:42:30;;;;;;;13.62;9.63;;;;;;;14.28;47.33;99392.34;5568364;32;33739;-58
2022/04/22 13:52:26;;;;;;;16.35;10.70;;;;;;;14.25;48.78;99379.53;5555277;32;33749;-59
2022/04/22 13:55:28;;;;;;;11.27;9.60;;;;;;;14.21;47.43;99385.91;5568745;32;33686;-59
2022/04/22 13:58:32;;;;;;;12.68;9.90;;;;;;;14.28;48.37;99386.16;5563311;32;34271;-59
2022/04/22 14:01:34;;;;;;;11.57;9.40;;;;;;;14.27;48.48;99384.56;5569061;32;33406;-59
2022/04/22 14:04:37;;;;;;;15.45;11.12;;;;;;;14.34;49.80;99374.84;5549475;32;34212;-59
2022/04/22 14:07:40;;;;;;;15.98;10.90;;;;;;;14.37;48.21;99378.81;5549595;32;33756;-59
2022/04/22 14:10:43;;;;;;;14.52;11.27;;;;;;;14.28;50.22;99370.00;5549820;32;33832;-59
2022/04/22 14:13:45;;;;;;;13.70;10.38;;;;;;;14.22;48.72;99365.91;5548948;32;33628;-59
2022/04/22 14:16:50;;;;;;;13.38;10.57;;;;;;;14.29;48.21;99366.16;5549897;32;33993;-58
2022/04/22 14:19:52;;;;;;;17.60;11.18;;;;;;;14.32;50.33;99370.91;5549613;32;34375;-59
2022/04/22 14:22:55;;;;;;;15.75;10.93;;;;;;;14.38;48.08;99372.28;5549792;32;34443;-59
2022/04/22 14:25:57;;;;;;;14.38;11.15;;;;;;;14.39;48.43;99368.47;5549674;32;33715;-60
2022/04/22 14:29:00;;;;;;;14.00;11.40;;;;;;;14.39;48.35;99364.97;5553317;32;33529;-59
2022/04/22 14:32:04;;;;;;;14.13;11.12;;;;;;;14.43;49.17;99358.59;5555200;32;33697;-58
2022/04/22 14:35:08;;;;;;;16.30;10.23;;;;;;;14.35;48.47;99354.06;5557688;32;33663;-59
2022/04/22 14:38:11;;;;;;;16.40;11.07;;;;;;;14.31;48.43;99353.94;5560386;32;33709;-59
2022/04/22 14:41:15;;;;;;;14.20;10.82;;;;;;;14.38;46.88;99350.72;5559967;32;33710;-59
2022/04/22 14:44:17;;;;;;;16.92;10.85;;;;;;;14.42;48.55;99354.31;5567624;32;34330;-59
2022/04/22 14:47:20;;;;;;;14.35;10.80;;;;;;;14.46;47.55;99359.84;5565006;32;34426;-58
2022/04/22 14:50:23;;;;;;;13.32;10.45;;;;;;;14.36;47.54;99347.56;5554300;32;33650;-58
2022/04/22 14:53:26;;;;;;;13.10;11.43;;;;;;;14.38;49.19;99358.81;5568935;32;33821;-59
2022/04/22 14:56:28;;;;;;;11.82;10.10;;;;;;;14.30;48.42;99351.56;5568722;32;34358;-58
2022/04/22 14:59:46;;;;;;;14.35;10.68;;;;;;;14.25;48.05;99354.47;5567297;31;33247;-59
2022/04/22 15:02:48;;;;;;;16.15;11.15;;;;;;;14.19;48.06;99336.91;5568665;32;34226;-59
2022/04/22 15:05:54;;;;;;;16.02;10.07;;;;;;;14.25;47.90;99332.91;5568990;32;33747;-59
2022/04/22 15:08:56;;;;;;;11.43;9.95;;;;;;;14.19;48.69;99323.44;5568878;31;33698;-59
2022/04/22 15:11:58;;;;;;;14.87;10.32;;;;;;;14.28;48.20;99333.03;5568606;32;33786;-59
2022/04/22 15:15:03;;;;;;;13.48;10.23;;;;;;;14.28;47.19;99332.25;5568703;32;34325;-59
2022/04/22 15:24:47;;;;;;;12.88;10.48;;;;;;;14.46;47.31;99319.41;5568621;32;34366;-59
2022/04/22 15:27:49;;;;;;;14.85;9.88;;;;;;;14.45;47.35;99315.13;5568272;32;33698;-59
2022/04/22 15:31:02;;;;;;;13.68;9.75;;;;;;;14.37;47.81;99315.97;5566726;31;33329;-59
2022/04/22 15:34:06;;;;;;;14.48;10.05;;;;;;;14.45;45.78;99310.53;5568319;32;33847;-59
2022/04/22 15:37:08;;;;;;;12.82;10.15;;;;;;;14.38;46.89;99307.59;5568069;32;33951;-59
